createdAt,value
2018-05-16T00:00:10.872Z,100851.63
2018-05-16T00:02:40.259Z,100855.41
2018-05-16T00:05:09.360Z,100855.18
2018-05-16T00:07:38.532Z,100847.31
2018-05-16T00:10:07.969Z,100850.37
2018-05-16T00:12:37.232Z,100857.11
2018-05-16T00:15:06.547Z,100853.66
2018-05-16T00:17:35.597Z,100852.89
2018-05-16T00:20:05.729Z,100861.27
2018-05-16T00:22:35.027Z,100855.56
2018-05-16T00:25:04.864Z,100858.59
2018-05-16T00:27:34.235Z,100854.24
2018-05-16T00:30:04.437Z,100855.06
2018-05-16T00:32:33.436Z,100858.16
2018-05-16T00:35:02.677Z,100849.30
2018-05-16T00:37:32.072Z,100847.88
2018-05-16T00:40:01.421Z,100853.97
2018-05-16T00:42:30.704Z,100853.65
2018-05-16T00:44:59.875Z,100845.19
2018-05-16T00:47:29.235Z,100846.77
2018-05-16T00:49:58.472Z,100851.37
2018-05-16T00:52:27.884Z,100842.91
2018-05-16T00:55:03.261Z,100841.13
2018-05-16T00:57:32.520Z,100850.77
2018-05-16T01:00:01.752Z,100853.00
2018-05-16T01:02:31.095Z,100849.58
2018-05-16T01:05:00.532Z,100852.18
2018-05-16T01:07:29.836Z,100856.31
2018-05-16T01:09:59.135Z,100849.55
2018-05-16T01:12:28.492Z,100854.08
2018-05-16T01:14:57.496Z,100857.66
2018-05-16T01:17:26.736Z,100858.55
2018-05-16T01:19:56.112Z,100858.05
2018-05-16T01:22:25.440Z,100851.99
2018-05-16T01:24:54.702Z,100850.11
2018-05-16T01:27:24.031Z,100843.08
2018-05-16T01:29:53.097Z,100841.41
2018-05-16T01:32:22.363Z,100839.67
2018-05-16T01:34:51.717Z,100842.64
2018-05-16T01:37:21.037Z,100843.03
2018-05-16T01:39:50.290Z,100841.72
2018-05-16T01:42:19.636Z,100839.49
2018-05-16T01:44:48.792Z,100838.66
2018-05-16T01:47:17.940Z,100836.69
2018-05-16T01:49:47.303Z,100835.27
2018-05-16T01:52:16.640Z,100845.00
2018-05-16T01:54:45.692Z,100836.02
2018-05-16T01:57:15.037Z,100836.77
2018-05-16T01:59:44.311Z,100841.52
2018-05-16T02:02:13.408Z,100846.00
2018-05-16T02:04:42.606Z,100837.91
2018-05-16T02:07:11.924Z,100845.56
2018-05-16T02:09:41.315Z,100846.77
2018-05-16T02:12:10.643Z,100837.05
2018-05-16T02:14:39.693Z,100844.01
2018-05-16T02:17:08.937Z,100841.41
2018-05-16T02:19:38.207Z,100844.83
2018-05-16T02:22:07.556Z,100839.24
2018-05-16T02:24:36.911Z,100844.75
2018-05-16T02:27:06.014Z,100845.50
2018-05-16T02:29:35.501Z,100841.11
2018-05-16T02:32:04.609Z,100839.31
2018-05-16T02:34:33.902Z,100838.36
2018-05-16T02:37:03.128Z,100834.30
2018-05-16T02:39:32.760Z,100834.48
2018-05-16T02:42:01.977Z,100843.19
2018-05-16T02:44:31.208Z,100834.38
2018-05-16T02:47:07.124Z,100835.27
2018-05-16T02:49:36.446Z,100838.16
2018-05-16T02:52:05.631Z,100841.02
2018-05-16T02:54:34.733Z,100834.22
2018-05-16T02:57:03.964Z,100826.38
2018-05-16T02:59:33.211Z,100835.82
2018-05-16T03:02:02.566Z,100831.80
2018-05-16T03:04:31.675Z,100829.78
2018-05-16T03:07:00.894Z,100837.59
2018-05-16T03:09:30.404Z,100835.55
2018-05-16T03:11:59.661Z,100832.77
2018-05-16T03:14:28.923Z,100842.24
2018-05-16T03:16:58.168Z,100842.24
2018-05-16T03:19:27.418Z,100843.95
2018-05-16T03:21:56.580Z,100840.14
2018-05-16T03:24:26.036Z,100832.30
2018-05-16T03:26:55.389Z,100833.41
2018-05-16T03:29:25.128Z,100834.98
2018-05-16T03:31:54.356Z,100834.34
2018-05-16T03:34:23.417Z,100834.09
2018-05-16T03:36:52.668Z,100835.81
2018-05-16T03:39:22.143Z,100830.46
2018-05-16T03:41:51.388Z,100827.41
2018-05-16T03:44:20.619Z,100826.78
2018-05-16T03:46:49.964Z,100832.50
2018-05-16T03:49:19.250Z,100832.95
2018-05-16T03:51:48.569Z,100835.88
2018-05-16T03:54:17.843Z,100829.53
2018-05-16T03:56:46.999Z,100830.72
2018-05-16T04:03:42.632Z,100834.40
2018-05-16T04:06:11.306Z,100839.42
2018-05-16T04:08:39.955Z,100843.52
2018-05-16T04:11:08.655Z,100840.44
2018-05-16T04:13:37.256Z,100844.77
